TRA367 EKBI-LOWS
Flight info
| Callsign | TRA367 |
|---|---|
| Flight time | N/A |
| Altitude | 35000 |
| Route | ALS M852 POVEL Z94 ABGUS DCT ALOSO DCT SODRO DCT TIPAM DCT OSTES T700 BADIT BADIT2R |
| Aircraft | B738/M-SDE2E3FGHIRWXY/LB1 |
Departure
| Time | 2025-12-31 11:47 |
|---|---|
| Airport | Billund Airport (EKBI) |
Arrival
| Time | N/A |
|---|---|
| Airport | Salzburg Airport (LOWS) |
| Time | Latitude | Longitude | Altitude | Speed | Heading |
|---|---|---|---|---|---|
| 2025-12-31 11:38 | 55.74388 | 9.14733 | 215 ft | 1 kts | 175° |
| 2025-12-31 11:38 | 55.74404 | 9.14730 | 220 ft | 3 kts | 173° |
| 2025-12-31 11:38 | 55.74440 | 9.14710 | 222 ft | 3 kts | 129° |
| 2025-12-31 11:39 | 55.74445 | 9.14690 | 217 ft | 1 kts | 85° |
| 2025-12-31 11:41 | 55.74446 | 9.14707 | 219 ft | 3 kts | 85° |
| 2025-12-31 11:42 | 55.74345 | 9.14987 | 218 ft | 19 kts | 176° |
| 2025-12-31 11:42 | 55.74208 | 9.15026 | 219 ft | 16 kts | 130° |
| 2025-12-31 11:42 | 55.74211 | 9.15525 | 215 ft | 24 kts | 86° |
| 2025-12-31 11:43 | 55.74232 | 9.16141 | 215 ft | 24 kts | 87° |
| 2025-12-31 11:43 | 55.74248 | 9.16727 | 215 ft | 29 kts | 87° |
| 2025-12-31 11:44 | 55.74273 | 9.17495 | 215 ft | 27 kts | 86° |
| 2025-12-31 11:44 | 55.74231 | 9.18138 | 218 ft | 6 kts | 160° |
| 2025-12-31 11:45 | 55.74222 | 9.18142 | 220 ft | 0 kts | 166° |
| 2025-12-31 11:46 | 55.74107 | 9.17579 | 220 ft | 79 kts | 267° |
| 2025-12-31 11:46 | 55.74070 | 9.16166 | 234 ft | 146 kts | 269° |
| 2025-12-31 11:46 | 55.74227 | 9.11864 | 1362 ft | 192 kts | 290° |
| 2025-12-31 11:47 | 55.76799 | 9.06671 | 3471 ft | 211 kts | 333° |
| 2025-12-31 11:47 | 55.78234 | 9.05753 | 4010 ft | 231 kts | 346° |
| 2025-12-31 11:48 | 55.84688 | 9.04185 | 7864 ft | 247 kts | 307° |
| 2025-12-31 11:49 | 55.84670 | 8.98104 | 9896 ft | 284 kts | 243° |
| 2025-12-31 11:49 | 55.83124 | 8.95660 | 10504 ft | 319 kts | 213° |
| 2025-12-31 11:50 | 55.78361 | 8.89826 | 12134 ft | 335 kts | 234° |
| 2025-12-31 11:50 | 55.74115 | 8.85519 | 13730 ft | 374 kts | 195° |
| 2025-12-31 11:51 | 55.68970 | 8.86935 | 15214 ft | 391 kts | 148° |